Huvudsida
METAR-TAF:

METAR-TAF

Flygplatser :

Unalakleet, Alaska, USA

latitud: 63-53N, longitud: 160-48W, höjd: 6 m

Aktuellt väderrapport

Denna rapport gjordes för 55 minuter sedan, klockan 21:56 UTC
Vind 7 kt från väst
Temperatur 12°C
Fuktighet 82%
Tryck 1015 hPa
Sikt: 16.1 km
Få moln på en höjd av 200 ft

METAR: PAUN 172156Z AUTO 27007KT 10SM FEW002 12/09 A2997 RMK AO2 SLP153 T01220094

Tid: 14:51 (22:51 UTC)

Väderprognos

Denna rapport gjordes för 5 timmar och 30 minuter sedan, klockan 17:21 UTC
Prognos gäller från 17 kl. 18 UTC till 18 kl. 18 UTC
Vind 5 kt från sydost
Sikt: 10 km
Få moln på en höjd av 300 ft
Från 17 kl. 2100 UTC
Vind 4 kt från väst/nordväst
Sikt: 10 km
Spridda moln på en höjd av 1500 ft
Brutna moln på en höjd av 10000 ft

TAF: PAUN 171721Z 1718/1818 13005KT P6SM FEW003 FM172100 29004KT P6SM SCT015 BKN100

Aktuella väderrapporter och prognoser från 4000 flygplatser (METAR- och TAF-rapporter).

De tillgängliga stationerna syns som gula och röda prickar på kartan.

För musen över prickarna för att se namnen på stationerna.

Klicka sedan för att få väderrapporter och prognoser.

För att ändra kartan: Klicka på de gröna knapparna med ett svart kors på för att zooma in; den gröna knappen med ett streck på för att zooma ut; eller på de gröna pilarna för angränsande kartor.


METAR-TAF: